createdAt,value
2023-02-11T00:00:30.328Z,984.69
2023-02-11T00:01:20.336Z,984.75
2023-02-11T00:02:10.318Z,984.72
2023-02-11T00:03:00.407Z,984.76
2023-02-11T00:03:50.319Z,984.79
2023-02-11T00:04:40.291Z,984.74
2023-02-11T00:05:30.296Z,984.72
2023-02-11T00:06:20.277Z,984.65
2023-02-11T00:07:10.276Z,984.69
2023-02-11T00:08:00.250Z,984.68
2023-02-11T00:08:50.256Z,984.63
2023-02-11T00:09:40.253Z,984.70
2023-02-11T00:10:30.221Z,984.72
2023-02-11T00:11:20.230Z,984.70
2023-02-11T00:12:10.215Z,984.69
2023-02-11T00:13:00.201Z,984.64
2023-02-11T00:13:50.217Z,984.67
2023-02-11T00:14:40.182Z,984.69
2023-02-11T00:15:30.189Z,984.66
2023-02-11T00:16:20.235Z,984.58
2023-02-11T00:17:10.219Z,984.53
2023-02-11T00:18:00.143Z,984.51
2023-02-11T00:18:50.132Z,984.56
2023-02-11T00:19:40.139Z,984.52
2023-02-11T00:20:30.135Z,984.53
2023-02-11T00:21:20.113Z,984.56
2023-02-11T00:22:10.217Z,984.54
2023-02-11T00:23:00.110Z,984.57
2023-02-11T00:23:50.083Z,984.55
2023-02-11T00:24:40.079Z,984.57
2023-02-11T00:25:30.059Z,984.56
2023-02-11T00:26:20.082Z,984.61
2023-02-11T00:27:10.061Z,984.62
2023-02-11T00:28:00.090Z,984.65
2023-02-11T00:28:50.041Z,984.64
2023-02-11T00:29:40.023Z,984.71
2023-02-11T00:30:30.078Z,984.72
2023-02-11T00:31:20.243Z,984.73
2023-02-11T00:32:09.985Z,984.73
2023-02-11T00:33:00.033Z,984.77
2023-02-11T00:33:49.972Z,984.74
2023-02-11T00:34:39.970Z,984.79
2023-02-11T00:35:29.953Z,984.81
2023-02-11T00:36:19.964Z,984.83
2023-02-11T00:37:09.942Z,984.77
2023-02-11T00:37:59.940Z,984.83
2023-02-11T00:38:49.934Z,984.81
2023-02-11T00:39:39.927Z,984.78
2023-02-11T00:40:29.921Z,984.76
2023-02-11T00:41:19.924Z,984.82
2023-02-11T00:42:09.915Z,984.85
2023-02-11T00:42:59.887Z,984.85
2023-02-11T00:43:49.870Z,984.84
2023-02-11T00:44:39.866Z,984.90
2023-02-11T00:45:29.873Z,984.87
2023-02-11T00:46:19.907Z,984.91
2023-02-11T00:47:09.879Z,984.86
2023-02-11T00:47:59.831Z,984.84
2023-02-11T00:48:49.819Z,984.84
2023-02-11T00:49:39.809Z,984.85
2023-02-11T00:50:29.798Z,984.88
2023-02-11T00:51:19.786Z,984.88
2023-02-11T00:52:09.831Z,984.91
2023-02-11T00:52:59.786Z,984.88
2023-02-11T00:53:49.764Z,984.93
2023-02-11T00:54:39.767Z,984.89
2023-02-11T00:55:29.740Z,984.93
2023-02-11T00:56:19.740Z,984.91
2023-02-11T00:57:09.728Z,984.91
2023-02-11T00:57:59.716Z,984.87
2023-02-11T00:58:49.715Z,984.93
2023-02-11T00:59:39.697Z,984.90
2023-02-11T01:00:29.685Z,984.88
2023-02-11T01:01:19.701Z,984.88
2023-02-11T01:02:09.666Z,984.92
2023-02-11T01:02:59.666Z,984.94
2023-02-11T01:03:49.672Z,984.96
2023-02-11T01:04:39.645Z,984.95
2023-02-11T01:05:29.760Z,984.96
2023-02-11T01:06:19.634Z,984.93
2023-02-11T01:07:09.635Z,984.98
2023-02-11T01:07:59.621Z,984.90
2023-02-11T01:08:49.618Z,984.92
2023-02-11T01:09:39.597Z,984.82
2023-02-11T01:10:29.620Z,984.85
2023-02-11T01:11:19.618Z,984.88
2023-02-11T01:12:09.573Z,984.86
2023-02-11T01:12:59.559Z,984.84
2023-02-11T01:13:49.574Z,984.83
2023-02-11T01:14:39.545Z,984.75
2023-02-11T01:15:29.564Z,984.70
2023-02-11T01:16:19.599Z,984.69
2023-02-11T01:17:09.515Z,984.72
2023-02-11T01:17:59.516Z,984.68
2023-02-11T01:18:49.531Z,984.70
2023-02-11T01:19:39.505Z,984.65
2023-02-11T01:20:29.478Z,984.59
2023-02-11T01:21:19.506Z,984.57
2023-02-11T01:22:09.459Z,984.52
2023-02-11T01:22:59.467Z,984.58
2023-02-11T01:23:49.492Z,984.56
2023-02-11T01:24:39.484Z,984.59
2023-02-11T01:25:29.451Z,984.56
2023-02-11T01:26:19.417Z,984.57
2023-02-11T01:27:09.406Z,984.56
2023-02-11T01:27:59.454Z,984.61
2023-02-11T01:28:49.403Z,984.56
2023-02-11T01:29:39.415Z,984.60
2023-02-11T01:30:29.373Z,984.59
2023-02-11T01:31:19.388Z,984.57
2023-02-11T01:32:09.425Z,984.58
2023-02-11T01:32:59.354Z,984.60
2023-02-11T01:33:49.333Z,984.55
2023-02-11T01:34:39.368Z,984.54
2023-02-11T01:35:29.341Z,984.50
2023-02-11T01:36:19.312Z,984.55
2023-02-11T01:37:09.306Z,984.54
2023-02-11T01:37:59.292Z,984.61
2023-02-11T01:38:49.290Z,984.63
2023-02-11T01:39:39.301Z,984.64
2023-02-11T01:40:29.262Z,984.65
2023-02-11T01:41:19.261Z,984.64
2023-02-11T01:42:09.252Z,984.67
2023-02-11T01:42:59.279Z,984.61
2023-02-11T01:43:49.232Z,984.58
2023-02-11T01:44:39.227Z,984.57
2023-02-11T01:45:29.256Z,984.58
2023-02-11T01:46:19.287Z,984.59
2023-02-11T01:47:09.192Z,984.61
2023-02-11T01:47:59.209Z,984.61
2023-02-11T01:48:49.257Z,984.56
2023-02-11T01:49:39.168Z,984.55
2023-02-11T01:50:29.159Z,984.57
2023-02-11T01:51:19.149Z,984.55
2023-02-11T01:52:09.156Z,984.57
2023-02-11T01:52:59.173Z,984.55
2023-02-11T01:53:49.125Z,984.52
2023-02-11T01:54:39.134Z,984.47
2023-02-11T01:55:29.098Z,984.49
2023-02-11T01:56:19.109Z,984.51
2023-02-11T01:57:09.118Z,984.57
2023-02-11T01:57:59.092Z,984.50
2023-02-11T01:58:49.071Z,984.52
2023-02-11T01:59:39.069Z,984.47
2023-02-11T02:00:29.046Z,984.44
2023-02-11T02:01:19.103Z,984.40
2023-02-11T02:02:09.085Z,984.44
2023-02-11T02:02:59.023Z,984.40
2023-02-11T02:03:49.076Z,984.37
2023-02-11T02:04:39.015Z,984.32
2023-02-11T02:05:29.008Z,984.37
2023-02-11T02:06:18.995Z,984.37
2023-02-11T02:07:08.982Z,984.35
2023-02-11T02:07:58.989Z,984.33
2023-02-11T02:08:48.963Z,984.31
2023-02-11T02:09:38.956Z,984.32
2023-02-11T02:10:28.984Z,984.31
2023-02-11T02:11:18.933Z,984.27
2023-02-11T02:12:08.983Z,984.23
2023-02-11T02:12:58.919Z,984.23
2023-02-11T02:13:48.924Z,984.30
2023-02-11T02:14:38.914Z,984.20
2023-02-11T02:15:28.890Z,984.16
2023-02-11T02:16:18.985Z,984.03
2023-02-11T02:17:08.868Z,984.04
2023-02-11T02:17:58.887Z,984.04
2023-02-11T02:18:48.938Z,983.98
2023-02-11T02:19:38.871Z,984.00
2023-02-11T02:20:28.829Z,984.00
2023-02-11T02:21:18.833Z,983.97
2023-02-11T02:22:08.817Z,983.95
2023-02-11T02:22:58.811Z,983.98
2023-02-11T02:23:48.820Z,983.98
2023-02-11T02:24:38.808Z,983.98
2023-02-11T02:25:28.790Z,983.96
2023-02-11T02:26:18.777Z,984.02
2023-02-11T02:27:08.768Z,984.03
2023-02-11T02:27:58.784Z,984.04
2023-02-11T02:28:48.745Z,984.02
2023-02-11T02:29:38.763Z,984.05
2023-02-11T02:30:28.745Z,984.06
2023-02-11T02:31:18.759Z,984.06
2023-02-11T02:32:08.705Z,984.00
2023-02-11T02:32:58.702Z,984.10
2023-02-11T02:33:48.699Z,984.03
2023-02-11T02:34:38.744Z,984.07
2023-02-11T02:35:28.668Z,984.09
2023-02-11T02:36:18.675Z,984.11
2023-02-11T02:37:08.656Z,984.05
2023-02-11T02:37:58.658Z,984.01
2023-02-11T02:38:48.643Z,983.98
2023-02-11T02:39:38.640Z,984.00
2023-02-11T02:40:28.618Z,983.95
2023-02-11T02:41:18.600Z,983.88
2023-02-11T02:42:08.605Z,983.85
2023-02-11T02:42:58.591Z,983.78
2023-02-11T02:43:48.580Z,983.78
2023-02-11T02:44:38.600Z,983.80
2023-02-11T02:45:28.582Z,983.77
2023-02-11T02:46:18.602Z,983.78
2023-02-11T02:47:08.568Z,983.79
2023-02-11T02:47:58.538Z,983.83
2023-02-11T02:48:48.532Z,983.79
2023-02-11T02:49:38.534Z,983.84
2023-02-11T02:50:28.524Z,983.83
2023-02-11T02:51:18.510Z,983.83
2023-02-11T02:52:08.561Z,983.92
2023-02-11T02:52:58.486Z,983.85
2023-02-11T02:53:48.489Z,983.85
2023-02-11T02:54:38.467Z,983.88
2023-02-11T02:55:28.463Z,983.89
2023-02-11T02:56:18.450Z,983.79
2023-02-11T02:57:08.489Z,983.84
2023-02-11T02:57:58.463Z,983.80
2023-02-11T02:58:48.430Z,983.80
2023-02-11T02:59:38.439Z,983.89
2023-02-11T03:00:28.443Z,983.78
2023-02-11T03:01:18.408Z,983.79
2023-02-11T03:02:08.409Z,983.78
2023-02-11T03:02:58.372Z,983.83
2023-02-11T03:03:48.399Z,983.85
2023-02-11T03:04:38.368Z,983.82
2023-02-11T03:05:28.377Z,983.89
2023-02-11T03:06:18.338Z,983.81
2023-02-11T03:07:08.345Z,983.84
2023-02-11T03:07:58.336Z,983.83
2023-02-11T03:08:48.318Z,983.77
2023-02-11T03:09:38.309Z,983.78
2023-02-11T03:10:28.334Z,983.70
2023-02-11T03:11:18.296Z,983.68
2023-02-11T03:12:08.287Z,983.66
2023-02-11T03:12:58.320Z,983.65
2023-02-11T03:13:48.283Z,983.70
2023-02-11T03:14:38.264Z,983.64
2023-02-11T03:15:28.246Z,983.68
2023-02-11T03:16:18.329Z,983.61
2023-02-11T03:17:08.238Z,983.61
2023-02-11T03:17:58.230Z,983.61
2023-02-11T03:18:48.251Z,983.64
2023-02-11T03:19:38.202Z,983.66
2023-02-11T03:20:28.198Z,983.67
2023-02-11T03:21:18.193Z,983.65
2023-02-11T03:22:08.193Z,983.67
2023-02-11T03:22:58.179Z,983.70
2023-02-11T03:23:48.175Z,983.71
2023-02-11T03:24:38.164Z,983.69
2023-02-11T03:25:28.145Z,983.74
2023-02-11T03:26:18.145Z,983.77
2023-02-11T03:27:08.127Z,983.76
2023-02-11T03:27:58.170Z,983.70
2023-02-11T03:28:48.111Z,983.65
2023-02-11T03:29:38.112Z,983.68
2023-02-11T03:30:28.154Z,983.64
2023-02-11T03:31:18.152Z,983.65
2023-02-11T03:32:08.128Z,983.69
2023-02-11T03:32:58.079Z,983.76
2023-02-11T03:33:48.072Z,983.70
2023-02-11T03:34:38.048Z,983.62
2023-02-11T03:35:28.046Z,983.74
2023-02-11T03:36:18.026Z,983.69
2023-02-11T03:37:08.052Z,983.79
2023-02-11T03:37:58.022Z,983.77
2023-02-11T03:38:48.050Z,983.75
2023-02-11T03:39:38.013Z,983.75
2023-02-11T03:40:27.985Z,983.73
2023-02-11T03:41:17.979Z,983.76
2023-02-11T03:42:08.004Z,983.81
2023-02-11T03:42:57.975Z,983.80
2023-02-11T03:43:47.963Z,983.86
2023-02-11T03:44:37.940Z,983.84
2023-02-11T03:45:28.005Z,983.83
2023-02-11T03:46:17.974Z,983.81
2023-02-11T03:47:07.923Z,983.79
2023-02-11T03:47:57.927Z,983.77
2023-02-11T03:48:47.910Z,983.74
2023-02-11T03:49:37.938Z,983.74
2023-02-11T03:50:27.904Z,983.69
2023-02-11T03:51:17.878Z,983.72
2023-02-11T03:52:07.867Z,983.67
2023-02-11T03:52:57.840Z,983.70
2023-02-11T03:53:47.863Z,983.73
2023-02-11T03:54:37.854Z,983.71
2023-02-11T03:55:27.828Z,983.70
2023-02-11T03:56:17.817Z,983.72
2023-02-11T03:57:07.811Z,983.72
2023-02-11T03:57:57.815Z,983.73
2023-02-11T03:58:47.800Z,983.72
2023-02-11T03:59:37.788Z,983.76
2023-02-11T04:00:27.793Z,983.76
2023-02-11T04:01:17.836Z,983.82
2023-02-11T04:02:07.763Z,983.88
2023-02-11T04:02:57.774Z,983.81
2023-02-11T04:03:47.754Z,983.81
2023-02-11T04:04:37.726Z,983.86
2023-02-11T04:05:27.746Z,983.90
2023-02-11T04:06:17.715Z,983.95
2023-02-11T04:07:07.704Z,983.97
2023-02-11T04:07:57.711Z,984.03
2023-02-11T04:08:47.690Z,984.02
2023-02-11T04:09:37.673Z,984.05
2023-02-11T04:10:27.677Z,984.03
2023-02-11T04:11:17.701Z,984.01
2023-02-11T04:12:28.688Z,983.99
2023-02-11T04:12:57.635Z,983.97
2023-02-11T04:13:47.643Z,983.99
2023-02-11T04:14:37.621Z,984.00
2023-02-11T04:15:27.643Z,983.93
2023-02-11T04:16:17.612Z,983.97
2023-02-11T04:17:07.601Z,983.95
2023-02-11T04:17:57.617Z,983.87
2023-02-11T04:18:47.593Z,983.94
2023-02-11T04:19:37.561Z,983.93
2023-02-11T04:20:27.563Z,983.93
2023-02-11T04:21:17.572Z,983.96
2023-02-11T04:22:07.549Z,983.97
2023-02-11T04:22:57.538Z,984.04
2023-02-11T04:23:47.527Z,984.01
2023-02-11T04:24:37.530Z,984.03
2023-02-11T04:25:27.512Z,984.00
2023-02-11T04:26:17.500Z,983.97
2023-02-11T04:27:07.509Z,983.98
2023-02-11T04:27:57.521Z,983.93
2023-02-11T04:28:47.471Z,983.93
2023-02-11T04:29:37.485Z,983.94
2023-02-11T04:30:27.448Z,983.93
2023-02-11T04:31:17.549Z,983.96
2023-02-11T04:32:07.499Z,983.94
2023-02-11T04:32:57.426Z,983.95
2023-02-11T04:33:47.446Z,983.93
2023-02-11T04:34:37.413Z,983.89
2023-02-11T04:35:27.413Z,983.90
2023-02-11T04:36:17.404Z,983.90
2023-02-11T04:37:07.388Z,983.88
2023-02-11T04:37:57.376Z,983.88
2023-02-11T04:38:47.389Z,983.88
2023-02-11T04:39:37.356Z,983.92
2023-02-11T04:40:27.349Z,983.94
2023-02-11T04:41:17.346Z,984.01
2023-02-11T04:42:07.334Z,984.04
2023-02-11T04:42:57.317Z,984.03
2023-02-11T04:43:47.339Z,983.98
2023-02-11T04:44:37.302Z,984.00
2023-02-11T04:45:27.326Z,983.97
2023-02-11T04:46:17.376Z,984.01
2023-02-11T04:47:07.279Z,984.01
2023-02-11T04:47:57.264Z,984.03
2023-02-11T04:48:47.275Z,983.98
2023-02-11T04:49:37.267Z,984.00
2023-02-11T04:50:27.244Z,983.94
2023-02-11T04:51:17.252Z,983.91
2023-02-11T04:52:07.232Z,983.87
2023-02-11T04:52:57.224Z,983.90
2023-02-11T04:53:47.224Z,983.95
2023-02-11T04:54:37.217Z,983.97
2023-02-11T04:55:27.203Z,984.06
2023-02-11T04:56:17.176Z,983.99
2023-02-11T04:57:07.170Z,983.92
2023-02-11T04:57:57.188Z,983.93
2023-02-11T04:58:47.151Z,983.92
2023-02-11T04:59:37.168Z,983.98
2023-02-11T05:00:27.140Z,984.00
2023-02-11T05:01:17.189Z,984.03
2023-02-11T05:02:07.120Z,984.06
2023-02-11T05:02:57.105Z,984.11
2023-02-11T05:03:47.132Z,984.12
2023-02-11T05:04:37.106Z,984.09
2023-02-11T05:05:27.089Z,984.08
2023-02-11T05:06:17.069Z,984.07
2023-02-11T05:07:07.069Z,984.04
2023-02-11T05:07:57.050Z,984.04
2023-02-11T05:08:47.066Z,984.12
2023-02-11T05:09:37.056Z,984.17
2023-02-11T05:10:27.033Z,984.12
2023-02-11T05:11:17.031Z,984.16
2023-02-11T05:12:07.021Z,984.16
2023-02-11T05:12:56.996Z,984.12
2023-02-11T05:13:46.992Z,984.10
2023-02-11T05:14:37.041Z,984.10
2023-02-11T05:15:26.977Z,984.08
2023-02-11T05:16:17.006Z,984.15
2023-02-11T05:17:06.974Z,984.07
2023-02-11T05:17:56.942Z,984.12
2023-02-11T05:18:46.966Z,984.07
2023-02-11T05:19:36.925Z,984.08
2023-02-11T05:20:26.935Z,984.03
2023-02-11T05:21:16.912Z,984.00
2023-02-11T05:22:06.903Z,984.01
2023-02-11T05:22:56.892Z,984.01
2023-02-11T05:23:46.899Z,984.02
2023-02-11T05:24:36.866Z,983.99
2023-02-11T05:25:26.872Z,983.96
2023-02-11T05:26:16.889Z,983.93
2023-02-11T05:27:06.844Z,983.85
2023-02-11T05:27:56.864Z,983.83
2023-02-11T05:28:46.840Z,983.77
2023-02-11T05:29:36.839Z,983.76
2023-02-11T05:30:26.843Z,983.77
2023-02-11T05:31:16.960Z,983.83
2023-02-11T05:32:06.797Z,983.88
2023-02-11T05:32:56.783Z,983.87
2023-02-11T05:33:46.802Z,983.84
2023-02-11T05:34:36.769Z,983.74
2023-02-11T05:35:26.761Z,983.72
2023-02-11T05:36:16.805Z,983.57
2023-02-11T05:37:06.810Z,983.55
2023-02-11T05:37:56.733Z,983.55
2023-02-11T05:38:46.727Z,983.54
2023-02-11T05:39:36.723Z,983.51
2023-02-11T05:40:26.710Z,983.48
2023-02-11T05:41:16.698Z,983.52
2023-02-11T05:42:06.711Z,983.53
2023-02-11T05:42:56.685Z,983.60
2023-02-11T05:43:46.694Z,983.54
2023-02-11T05:44:36.695Z,983.49
2023-02-11T05:45:26.659Z,983.51
2023-02-11T05:46:16.772Z,983.46
2023-02-11T05:47:06.654Z,983.48
2023-02-11T05:47:56.674Z,983.48
2023-02-11T05:48:46.637Z,983.57
2023-02-11T05:49:36.633Z,983.50
2023-02-11T05:50:26.627Z,983.49
2023-02-11T05:51:16.604Z,983.48
2023-02-11T05:52:06.590Z,983.47
2023-02-11T05:52:56.574Z,983.47
2023-02-11T05:53:46.566Z,983.42
2023-02-11T05:54:36.576Z,983.44
2023-02-11T05:55:26.568Z,983.44
2023-02-11T05:56:16.535Z,983.46
2023-02-11T05:57:06.531Z,983.46
2023-02-11T05:57:56.520Z,983.43
2023-02-11T05:58:46.527Z,983.39
2023-02-11T05:59:36.504Z,983.41
2023-02-11T06:00:26.496Z,983.38
2023-02-11T06:01:16.495Z,983.41
2023-02-11T06:02:06.523Z,983.41
2023-02-11T06:02:56.581Z,983.42
2023-02-11T06:03:46.499Z,983.44
2023-02-11T06:04:36.444Z,983.42
2023-02-11T06:05:26.451Z,983.41
2023-02-11T06:06:16.455Z,983.40
2023-02-11T06:07:06.420Z,983.35
2023-02-11T06:07:56.457Z,983.34
2023-02-11T06:08:46.419Z,983.37
2023-02-11T06:09:36.392Z,983.39
2023-02-11T06:10:26.392Z,983.39
2023-02-11T06:11:16.381Z,983.32
2023-02-11T06:12:06.381Z,983.35
2023-02-11T06:12:56.389Z,983.37
2023-02-11T06:13:46.343Z,983.33
2023-02-11T06:14:36.345Z,983.32
2023-02-11T06:15:26.343Z,983.35
2023-02-11T06:16:16.441Z,983.36
2023-02-11T06:17:06.337Z,983.41
2023-02-11T06:17:56.306Z,983.35
2023-02-11T06:18:46.310Z,983.35
2023-02-11T06:19:36.290Z,983.32
2023-02-11T06:20:26.276Z,983.30
2023-02-11T06:21:16.291Z,983.35
2023-02-11T06:22:06.272Z,983.35
2023-02-11T06:22:56.251Z,983.35
2023-02-11T06:23:46.245Z,983.29
2023-02-11T06:24:58.511Z,983.25
2023-02-11T06:25:27.232Z,983.23
2023-02-11T06:26:16.228Z,983.19
2023-02-11T06:27:06.224Z,983.23
2023-02-11T06:27:56.292Z,983.26
2023-02-11T06:28:46.304Z,983.24
2023-02-11T06:29:36.208Z,983.24
2023-02-11T06:30:26.164Z,983.21
2023-02-11T06:31:16.292Z,983.22
2023-02-11T06:32:06.263Z,983.16
2023-02-11T06:32:56.199Z,983.13
2023-02-11T06:33:46.146Z,983.18
2023-02-11T06:34:36.131Z,983.18
2023-02-11T06:35:26.130Z,983.16
2023-02-11T06:36:16.117Z,983.14
2023-02-11T06:37:06.097Z,983.13
2023-02-11T06:37:56.093Z,983.11
2023-02-11T06:38:46.079Z,983.06
2023-02-11T06:39:36.133Z,983.08
2023-02-11T06:40:26.089Z,983.03
2023-02-11T06:41:16.069Z,983.00
2023-02-11T06:42:07.964Z,982.97
2023-02-11T06:42:56.059Z,982.97
2023-02-11T06:43:46.034Z,982.91
2023-02-11T06:44:36.019Z,982.93
2023-02-11T06:45:26.033Z,982.97
2023-02-11T06:46:16.105Z,982.98
2023-02-11T06:47:05.995Z,983.05
2023-02-11T06:47:55.983Z,983.05
2023-02-11T06:48:45.973Z,983.03
2023-02-11T06:49:35.980Z,983.07
2023-02-11T06:50:25.999Z,983.05
2023-02-11T06:51:15.954Z,983.14
2023-02-11T06:52:05.943Z,983.16
2023-02-11T06:52:55.950Z,983.16
2023-02-11T06:53:45.940Z,983.20
2023-02-11T06:54:35.941Z,983.25
2023-02-11T06:55:25.924Z,983.27
2023-02-11T06:56:15.901Z,983.33
2023-02-11T06:57:05.898Z,983.30
2023-02-11T06:57:55.907Z,983.31
2023-02-11T06:58:45.870Z,983.29
2023-02-11T06:59:35.863Z,983.33
2023-02-11T07:00:25.870Z,983.32
2023-02-11T07:01:15.860Z,983.38
2023-02-11T07:02:05.898Z,983.38
2023-02-11T07:02:55.893Z,983.39
2023-02-11T07:03:45.822Z,983.42
2023-02-11T07:04:35.826Z,983.45
2023-02-11T07:05:25.805Z,983.42
2023-02-11T07:06:15.809Z,983.50
2023-02-11T07:07:05.778Z,983.41
2023-02-11T07:07:55.797Z,983.50
2023-02-11T07:08:45.768Z,983.50
2023-02-11T07:09:35.764Z,983.50
2023-02-11T07:10:25.745Z,983.48
2023-02-11T07:11:15.762Z,983.51
2023-02-11T07:12:05.738Z,983.50
2023-02-11T07:12:58.654Z,983.45
2023-02-11T07:13:45.708Z,983.45
2023-02-11T07:14:35.706Z,983.49
2023-02-11T07:15:25.686Z,983.52
2023-02-11T07:16:15.757Z,983.54
2023-02-11T07:17:05.703Z,983.57
2023-02-11T07:17:55.671Z,983.60
2023-02-11T07:18:45.689Z,983.64
2023-02-11T07:19:35.653Z,983.70
2023-02-11T07:20:25.645Z,983.72
2023-02-11T07:21:15.636Z,983.72
2023-02-11T07:22:05.667Z,983.71
2023-02-11T07:22:55.624Z,983.66
2023-02-11T07:23:45.610Z,983.66
2023-02-11T07:24:35.613Z,983.64
2023-02-11T07:25:25.583Z,983.62
2023-02-11T07:26:15.591Z,983.64
2023-02-11T07:27:05.584Z,983.59
2023-02-11T07:27:55.609Z,983.61
2023-02-11T07:28:45.549Z,983.59
2023-02-11T07:29:35.552Z,983.58
2023-02-11T07:30:25.544Z,983.51
2023-02-11T07:31:15.655Z,983.48
2023-02-11T07:32:05.549Z,983.48
2023-02-11T07:32:55.550Z,983.46
2023-02-11T07:33:45.503Z,983.46
2023-02-11T07:34:35.519Z,983.48
2023-02-11T07:35:25.489Z,983.46
2023-02-11T07:36:15.487Z,983.46
2023-02-11T07:37:05.459Z,983.43
2023-02-11T07:37:55.468Z,983.43
2023-02-11T07:38:45.458Z,983.46
2023-02-11T07:39:35.459Z,983.51
2023-02-11T07:40:25.430Z,983.56
2023-02-11T07:41:15.418Z,983.60
2023-02-11T07:42:05.468Z,983.63
2023-02-11T07:42:55.439Z,983.67
2023-02-11T07:43:45.388Z,983.67
2023-02-11T07:44:35.388Z,983.69
2023-02-11T07:45:25.424Z,983.70
2023-02-11T07:46:15.399Z,983.72
2023-02-11T07:47:05.483Z,983.74
2023-02-11T07:47:55.347Z,983.76
2023-02-11T07:48:45.354Z,983.75
2023-02-11T07:49:35.367Z,983.75
2023-02-11T07:50:25.314Z,983.70
2023-02-11T07:51:15.316Z,983.63
2023-02-11T07:52:05.315Z,983.63
2023-02-11T07:52:55.351Z,983.60
2023-02-11T07:53:45.284Z,983.61
2023-02-11T07:54:35.275Z,983.57
2023-02-11T07:55:25.268Z,983.62
2023-02-11T07:56:15.264Z,983.62
2023-02-11T07:57:05.253Z,983.63
2023-02-11T07:57:55.274Z,983.63
2023-02-11T07:58:45.236Z,983.67
2023-02-11T07:59:36.692Z,983.67
2023-02-11T08:00:25.232Z,983.64
2023-02-11T08:01:15.273Z,983.63
2023-02-11T08:02:05.249Z,983.59
2023-02-11T08:02:55.190Z,983.60
2023-02-11T08:03:45.197Z,983.58
2023-02-11T08:04:35.184Z,983.60
2023-02-11T08:05:25.181Z,983.57
2023-02-11T08:06:15.160Z,983.61
2023-02-11T08:07:05.169Z,983.64
2023-02-11T08:07:55.132Z,983.56
2023-02-11T08:08:45.138Z,983.53
2023-02-11T08:09:35.130Z,983.52
2023-02-11T08:10:25.109Z,983.56
2023-02-11T08:11:15.098Z,983.53
2023-02-11T08:12:05.079Z,983.60
2023-02-11T08:12:55.110Z,983.58
2023-02-11T08:13:45.091Z,983.55
2023-02-11T08:14:35.075Z,983.57
2023-02-11T08:15:25.051Z,983.61
2023-02-11T08:16:15.059Z,983.59
2023-02-11T08:17:05.030Z,983.58
2023-02-11T08:17:55.032Z,983.59
2023-02-11T08:18:45.027Z,983.55
2023-02-11T08:19:35.396Z,983.62
2023-02-11T08:20:24.990Z,983.60
2023-02-11T08:21:15.007Z,983.55
2023-02-11T08:22:04.972Z,983.59
2023-02-11T08:22:55.035Z,983.60
2023-02-11T08:23:44.952Z,983.60
2023-02-11T08:24:34.991Z,983.59
2023-02-11T08:25:24.953Z,983.59
2023-02-11T08:26:14.945Z,983.58
2023-02-11T08:27:04.913Z,983.55
2023-02-11T08:27:55.077Z,983.49
2023-02-11T08:28:44.901Z,983.52
2023-02-11T08:29:34.890Z,983.51
2023-02-11T08:30:26.441Z,983.50
2023-02-11T08:31:15.050Z,983.45
2023-02-11T08:32:04.892Z,983.49
2023-02-11T08:32:54.866Z,983.52
2023-02-11T08:33:44.843Z,983.53
2023-02-11T08:34:34.842Z,983.60
2023-02-11T08:35:24.840Z,983.63
2023-02-11T08:36:14.826Z,983.68
2023-02-11T08:37:04.843Z,983.69
2023-02-11T08:37:54.810Z,983.74
2023-02-11T08:38:44.793Z,983.74
2023-02-11T08:39:34.789Z,983.74
2023-02-11T08:40:24.849Z,983.75
2023-02-11T08:41:14.774Z,983.72
2023-02-11T08:42:04.767Z,983.70
2023-02-11T08:42:54.750Z,983.67
2023-02-11T08:43:44.737Z,983.69
2023-02-11T08:44:34.746Z,983.68
2023-02-11T08:45:24.739Z,983.65
2023-02-11T08:46:14.777Z,983.65
2023-02-11T08:47:04.721Z,983.69
2023-02-11T08:47:54.718Z,983.69
2023-02-11T08:48:44.685Z,983.73
2023-02-11T08:49:34.679Z,983.74
2023-02-11T08:50:24.724Z,983.69
2023-02-11T08:51:14.664Z,983.75
2023-02-11T08:52:04.688Z,983.70
2023-02-11T08:52:54.659Z,983.69
2023-02-11T08:53:44.627Z,983.68
2023-02-11T08:54:34.621Z,983.66
2023-02-11T08:55:24.607Z,983.68
2023-02-11T08:56:14.630Z,983.71
2023-02-11T08:57:04.584Z,983.75
2023-02-11T08:57:54.593Z,983.72
2023-02-11T08:58:44.582Z,983.74
2023-02-11T08:59:34.614Z,983.74
2023-02-11T09:00:24.556Z,983.77
2023-02-11T09:01:14.666Z,983.76
2023-02-11T09:02:04.574Z,983.77
2023-02-11T09:02:54.537Z,983.78
2023-02-11T09:03:44.519Z,983.77
2023-02-11T09:04:34.512Z,983.74
2023-02-11T09:05:24.492Z,983.78
2023-02-11T09:06:14.500Z,983.73
2023-02-11T09:07:04.499Z,983.70
2023-02-11T09:07:54.482Z,983.65
2023-02-11T09:08:46.372Z,983.68
2023-02-11T09:09:34.460Z,983.67
2023-02-11T09:10:24.454Z,983.65
2023-02-11T09:11:14.449Z,983.59
2023-02-11T09:12:04.447Z,983.53
2023-02-11T09:12:54.427Z,983.55
2023-02-11T09:13:44.410Z,983.49
2023-02-11T09:14:34.438Z,983.56
2023-02-11T09:15:24.397Z,983.52
2023-02-11T09:16:14.459Z,983.53
2023-02-11T09:17:04.442Z,983.51
2023-02-11T09:17:54.368Z,983.42
2023-02-11T09:18:44.381Z,983.44
2023-02-11T09:19:34.369Z,983.43
2023-02-11T09:20:24.356Z,983.35
2023-02-11T09:21:14.348Z,983.37
2023-02-11T09:22:04.326Z,983.38
2023-02-11T09:22:54.325Z,983.39
2023-02-11T09:23:44.321Z,983.37
2023-02-11T09:24:34.310Z,983.35
2023-02-11T09:25:24.289Z,983.40
2023-02-11T09:26:14.280Z,983.38
2023-02-11T09:27:04.268Z,983.44
2023-02-11T09:27:54.272Z,983.41
2023-02-11T09:28:44.246Z,983.38
2023-02-11T09:29:34.286Z,983.39
2023-02-11T09:30:24.226Z,983.36
2023-02-11T09:31:14.349Z,983.46
2023-02-11T09:32:04.410Z,983.37
2023-02-11T09:32:54.218Z,983.41
2023-02-11T09:33:44.276Z,983.40
2023-02-11T09:34:34.206Z,983.43
2023-02-11T09:35:24.187Z,983.39
2023-02-11T09:36:14.175Z,983.40
2023-02-11T09:37:04.165Z,983.45
2023-02-11T09:37:54.159Z,983.41
2023-02-11T09:38:44.142Z,983.43
2023-02-11T09:39:34.133Z,983.45
2023-02-11T09:40:24.118Z,983.44
2023-02-11T09:41:14.164Z,983.43
2023-02-11T09:42:04.103Z,983.45
2023-02-11T09:42:54.112Z,983.43
2023-02-11T09:43:44.089Z,983.45
2023-02-11T09:44:34.078Z,983.46
2023-02-11T09:45:24.086Z,983.48
2023-02-11T09:46:14.078Z,983.48
2023-02-11T09:47:04.073Z,983.52
2023-02-11T09:47:54.054Z,983.52
2023-02-11T09:48:44.040Z,983.59
2023-02-11T09:49:34.040Z,983.49
2023-02-11T09:50:24.022Z,983.50
2023-02-11T09:51:14.013Z,983.48
2023-02-11T09:52:04.047Z,983.48
2023-02-11T09:52:54.029Z,983.47
2023-02-11T09:53:43.990Z,983.46
2023-02-11T09:54:33.979Z,983.44
2023-02-11T09:55:23.961Z,983.43
2023-02-11T09:56:13.958Z,983.42
2023-02-11T09:57:03.961Z,983.40
2023-02-11T09:57:53.955Z,983.45
2023-02-11T09:58:43.929Z,983.47
2023-02-11T09:59:33.919Z,983.47
2023-02-11T10:00:23.936Z,983.47
2023-02-11T10:01:13.928Z,983.49
2023-02-11T10:02:03.892Z,983.43
2023-02-11T10:02:53.900Z,983.36
2023-02-11T10:03:43.873Z,983.38
2023-02-11T10:04:33.909Z,983.34
2023-02-11T10:05:23.872Z,983.33
2023-02-11T10:06:13.840Z,983.32
2023-02-11T10:07:03.853Z,983.33
2023-02-11T10:07:53.836Z,983.40
2023-02-11T10:08:43.870Z,983.35
2023-02-11T10:09:33.813Z,983.38
2023-02-11T10:10:23.813Z,983.34
2023-02-11T10:11:26.035Z,983.33
2023-02-11T10:12:04.820Z,983.34
2023-02-11T10:12:53.784Z,983.29
2023-02-11T10:13:43.781Z,983.29
2023-02-11T10:14:33.751Z,983.28
2023-02-11T10:15:23.798Z,983.29
2023-02-11T10:16:13.798Z,983.26
2023-02-11T10:17:03.741Z,983.26
2023-02-11T10:17:53.710Z,983.22
2023-02-11T10:18:43.777Z,983.19
2023-02-11T10:19:33.705Z,983.22
2023-02-11T10:20:23.694Z,983.22
2023-02-11T10:21:13.682Z,983.20
2023-02-11T10:22:03.700Z,983.21
2023-02-11T10:22:53.665Z,983.26
2023-02-11T10:23:43.670Z,983.26